createdAt,value
2023-05-14T00:00:14.598Z,43.04
2023-05-14T00:02:45.062Z,43.21
2023-05-14T00:05:15.541Z,43.28
2023-05-14T00:07:46.032Z,43.29
2023-05-14T00:10:17.745Z,43.52
2023-05-14T00:12:50.749Z,43.51
2023-05-14T00:15:20.959Z,43.41
2023-05-14T00:17:51.281Z,43.70
2023-05-14T00:20:21.852Z,43.68
2023-05-14T00:22:54.920Z,43.75
2023-05-14T00:25:24.937Z,43.84
2023-05-14T00:27:57.668Z,44.16
2023-05-14T00:30:27.734Z,43.61
2023-05-14T00:32:57.950Z,43.74
2023-05-14T00:35:28.233Z,43.96
2023-05-14T00:37:58.233Z,43.96
2023-05-14T00:40:30.134Z,43.97
2023-05-14T00:43:02.888Z,44.10
2023-05-14T00:45:33.099Z,44.24
2023-05-14T00:48:03.644Z,44.06
2023-05-14T00:50:34.715Z,43.92
2023-05-14T00:53:10.208Z,43.83
2023-05-14T00:55:41.309Z,43.90
2023-05-14T00:58:16.268Z,43.66
2023-05-14T01:00:46.337Z,43.88
2023-05-14T01:03:17.489Z,43.77
2023-05-14T01:05:57.156Z,43.59
2023-05-14T01:08:36.128Z,43.31
2023-05-14T01:11:09.918Z,43.72
2023-05-14T01:13:53.121Z,43.34
2023-05-14T01:16:23.716Z,43.52
2023-05-14T01:18:55.094Z,43.66
2023-05-14T01:21:40.718Z,43.59
2023-05-14T01:24:11.472Z,43.53
2023-05-14T01:26:41.685Z,43.39
2023-05-14T01:29:22.208Z,43.42
2023-05-14T01:31:56.904Z,43.07
2023-05-14T01:34:29.422Z,42.91
2023-05-14T01:37:03.602Z,43.05
2023-05-14T01:39:37.955Z,43.01
2023-05-14T01:42:10.139Z,42.69
2023-05-14T01:44:40.589Z,42.73
2023-05-14T01:47:10.782Z,42.23
2023-05-14T01:49:41.272Z,42.38
2023-05-14T01:52:14.049Z,42.61
2023-05-14T01:54:44.132Z,42.68
2023-05-14T01:57:14.493Z,42.55
2023-05-14T01:59:44.522Z,42.57
2023-05-14T02:02:14.902Z,42.60
2023-05-14T02:04:45.416Z,42.07
2023-05-14T02:07:18.089Z,42.42
2023-05-14T02:09:49.131Z,41.86
2023-05-14T02:12:19.325Z,42.11
2023-05-14T02:14:49.616Z,41.69
2023-05-14T02:17:19.896Z,41.59
2023-05-14T02:19:50.161Z,41.79
2023-05-14T02:22:23.000Z,41.56
2023-05-14T02:24:53.307Z,41.41
2023-05-14T02:27:23.276Z,41.26
2023-05-14T02:29:53.346Z,41.03
2023-05-14T02:32:23.578Z,41.15
2023-05-14T02:34:53.906Z,40.77
2023-05-14T02:37:26.570Z,40.49
2023-05-14T02:39:56.749Z,40.80
2023-05-14T02:42:27.194Z,40.59
2023-05-14T02:44:57.289Z,40.49
2023-05-14T02:47:27.868Z,40.70
2023-05-14T02:49:57.949Z,40.68
2023-05-14T02:52:30.581Z,40.72
2023-05-14T02:55:00.715Z,40.48
2023-05-14T02:57:30.869Z,40.83
2023-05-14T03:00:00.945Z,40.33
2023-05-14T03:02:36.015Z,40.47
2023-05-14T03:05:06.848Z,40.50
2023-05-14T03:07:39.597Z,40.45
2023-05-14T03:10:10.724Z,40.42
2023-05-14T03:12:41.066Z,40.27
2023-05-14T03:15:14.623Z,40.43
2023-05-14T03:17:44.728Z,40.36
2023-05-14T03:20:16.194Z,40.47
2023-05-14T03:22:48.988Z,40.38
2023-05-14T03:25:19.340Z,40.64
2023-05-14T03:27:50.274Z,40.31
2023-05-14T03:30:20.715Z,40.44
2023-05-14T03:32:51.989Z,39.90
2023-05-14T03:35:22.221Z,40.13
2023-05-14T03:37:55.372Z,39.95
2023-05-14T03:40:25.706Z,39.83
2023-05-14T03:42:56.220Z,39.98
2023-05-14T03:45:27.566Z,39.98
2023-05-14T03:48:02.066Z,39.89
2023-05-14T03:50:36.280Z,40.07
2023-05-14T03:53:09.043Z,39.77
2023-05-14T03:55:39.529Z,39.44
2023-05-14T03:58:14.577Z,39.51
2023-05-14T04:00:45.265Z,39.56
2023-05-14T04:03:15.401Z,39.53
2023-05-14T04:05:46.273Z,39.03
2023-05-14T04:08:19.181Z,39.40
2023-05-14T04:10:49.565Z,39.74
2023-05-14T04:13:19.708Z,39.34
2023-05-14T04:15:49.820Z,39.54
2023-05-14T04:18:20.094Z,39.29
2023-05-14T04:20:52.788Z,39.34
2023-05-14T04:23:25.848Z,39.38
2023-05-14T04:25:55.922Z,39.35
2023-05-14T04:28:26.025Z,39.28
2023-05-14T04:30:56.020Z,39.17
2023-05-14T04:33:26.050Z,38.84
2023-05-14T04:35:56.193Z,38.69
2023-05-14T04:38:28.910Z,38.27
2023-05-14T04:40:58.887Z,38.39
2023-05-14T04:43:28.940Z,38.05
2023-05-14T04:45:58.997Z,37.67
2023-05-14T04:48:29.196Z,37.34
2023-05-14T04:50:59.169Z,37.25
2023-05-14T04:53:31.851Z,36.84
2023-05-14T04:56:01.871Z,36.05
2023-05-14T04:58:34.603Z,35.79
2023-05-14T05:01:06.334Z,35.44
2023-05-14T05:03:36.522Z,35.72
2023-05-14T05:06:06.916Z,35.94
2023-05-14T05:08:40.072Z,36.50
2023-05-14T05:11:10.472Z,36.43
2023-05-14T05:13:40.471Z,36.91
2023-05-14T05:16:10.730Z,36.98
2023-05-14T05:18:40.988Z,37.00
2023-05-14T05:21:12.132Z,36.71
2023-05-14T05:23:44.845Z,36.77
2023-05-14T05:26:14.853Z,36.67
2023-05-14T05:28:44.965Z,36.83
2023-05-14T05:31:15.786Z,36.73
2023-05-14T05:33:47.381Z,36.92
2023-05-14T05:36:17.454Z,36.97
2023-05-14T05:38:50.090Z,36.71
2023-05-14T05:41:20.783Z,36.50
2023-05-14T05:43:51.137Z,37.08
2023-05-14T05:46:22.194Z,37.22
2023-05-14T05:48:53.426Z,37.00
2023-05-14T05:51:23.663Z,37.02
2023-05-14T05:53:56.287Z,36.78
2023-05-14T05:56:28.157Z,36.69
2023-05-14T05:58:58.185Z,36.76
2023-05-14T06:01:28.298Z,36.11
2023-05-14T06:03:58.784Z,35.78
2023-05-14T06:06:28.903Z,35.86
2023-05-14T06:09:02.192Z,35.69
2023-05-14T06:11:32.248Z,35.77
2023-05-14T06:14:02.288Z,35.36
2023-05-14T06:16:32.353Z,35.35
2023-05-14T06:19:02.551Z,35.09
2023-05-14T06:21:32.678Z,35.14
2023-05-14T06:24:05.484Z,35.63
2023-05-14T06:26:35.504Z,35.55
2023-05-14T06:29:05.932Z,34.73
2023-05-14T06:31:36.044Z,34.89
2023-05-14T06:34:06.371Z,34.37
2023-05-14T06:36:36.397Z,34.87
2023-05-14T06:39:09.256Z,34.61
2023-05-14T06:41:39.292Z,34.38
2023-05-14T06:44:09.517Z,34.96
2023-05-14T06:46:39.943Z,34.89
2023-05-14T06:49:10.309Z,34.70
2023-05-14T06:51:42.073Z,34.21
2023-05-14T06:54:14.878Z,34.47
2023-05-14T06:56:44.988Z,33.92
2023-05-14T06:59:15.303Z,34.26
2023-05-14T07:01:45.688Z,33.71
2023-05-14T07:04:15.864Z,33.66
2023-05-14T07:06:46.235Z,33.57
2023-05-14T07:09:19.172Z,33.47
2023-05-14T07:11:52.041Z,33.28
2023-05-14T07:14:22.540Z,33.20
2023-05-14T07:16:53.054Z,32.66
2023-05-14T07:19:23.252Z,32.92
2023-05-14T07:21:54.118Z,32.36
2023-05-14T07:24:27.178Z,31.91
2023-05-14T07:26:57.556Z,31.85
2023-05-14T07:29:28.610Z,31.25
2023-05-14T07:31:58.843Z,30.26
2023-05-14T07:34:28.987Z,30.94
2023-05-14T07:36:59.425Z,31.01
2023-05-14T07:39:32.080Z,30.91
2023-05-14T07:42:03.658Z,29.34
2023-05-14T07:44:33.801Z,29.01
2023-05-14T07:47:04.439Z,29.30
2023-05-14T07:49:34.681Z,29.64
2023-05-14T07:52:04.888Z,29.78
2023-05-14T07:54:37.724Z,29.25
2023-05-14T07:57:08.540Z,28.25
2023-05-14T07:59:38.752Z,29.16
2023-05-14T08:02:10.352Z,28.72
2023-05-14T08:04:40.623Z,28.50
2023-05-14T08:07:10.788Z,28.14
2023-05-14T08:09:43.464Z,28.03
2023-05-14T08:12:13.536Z,28.20
2023-05-14T08:14:43.875Z,28.08
2023-05-14T08:17:14.108Z,28.36
2023-05-14T08:19:44.290Z,28.13
2023-05-14T08:22:14.374Z,28.22
2023-05-14T08:24:47.101Z,28.38
2023-05-14T08:27:17.357Z,27.88
2023-05-14T08:29:47.532Z,27.25
2023-05-14T08:32:23.518Z,26.86
2023-05-14T08:34:54.392Z,26.56
2023-05-14T08:37:24.484Z,26.79
2023-05-14T08:39:57.248Z,26.81
2023-05-14T08:42:28.072Z,26.25
2023-05-14T08:45:04.169Z,26.25
2023-05-14T08:47:34.849Z,27.38
2023-05-14T08:50:07.615Z,27.45
2023-05-14T08:52:38.625Z,26.76
2023-05-14T08:55:12.811Z,27.01
2023-05-14T08:57:43.331Z,24.77
2023-05-14T09:00:15.800Z,24.08
2023-05-14T09:02:49.481Z,23.69
2023-05-14T09:05:21.841Z,23.17
2023-05-14T09:07:52.030Z,22.07
2023-05-14T09:10:25.124Z,22.32
2023-05-14T09:12:55.490Z,22.57
2023-05-14T09:15:29.343Z,21.59
2023-05-14T09:18:00.112Z,21.23
2023-05-14T09:20:30.424Z,19.99
2023-05-14T09:23:01.843Z,19.45
2023-05-14T09:25:36.364Z,19.41
2023-05-14T09:28:09.851Z,17.91
2023-05-14T09:30:40.774Z,18.25
2023-05-14T09:33:11.120Z,18.15
2023-05-14T09:35:43.525Z,19.13
2023-05-14T09:38:14.513Z,18.97
2023-05-14T09:40:48.822Z,18.35
2023-05-14T09:43:18.947Z,18.10
2023-05-14T09:45:49.189Z,17.21
2023-05-14T09:48:19.376Z,17.59
2023-05-14T09:50:50.031Z,17.14
2023-05-14T09:53:20.177Z,17.01
2023-05-14T09:55:52.930Z,17.13
2023-05-14T09:58:23.059Z,16.63
2023-05-14T10:00:54.807Z,16.66
2023-05-14T10:03:28.226Z,16.55
2023-05-14T10:06:01.563Z,16.04
2023-05-14T10:08:37.377Z,15.73
2023-05-14T10:11:15.056Z,16.13
2023-05-14T10:13:49.582Z,15.29
2023-05-14T10:16:24.756Z,15.92
2023-05-14T10:18:59.540Z,16.14
2023-05-14T10:21:32.886Z,16.65
2023-05-14T10:24:03.196Z,17.28
2023-05-14T10:26:37.934Z,17.17
2023-05-14T10:29:08.320Z,17.80
2023-05-14T10:31:53.916Z,19.23
2023-05-14T10:34:40.900Z,19.92
2023-05-14T10:37:12.975Z,18.31
2023-05-14T10:39:48.191Z,18.13
2023-05-14T10:42:23.405Z,18.85
2023-05-14T10:44:58.933Z,19.91
2023-05-14T10:47:29.695Z,20.72
2023-05-14T10:50:01.553Z,22.11
2023-05-14T10:52:32.695Z,22.67
2023-05-14T10:55:04.125Z,22.26
2023-05-14T10:57:39.713Z,22.56
2023-05-14T11:00:11.503Z,23.23
2023-05-14T11:02:48.304Z,23.47
2023-05-14T11:05:19.468Z,23.84
2023-05-14T11:07:51.354Z,23.62
2023-05-14T11:10:23.993Z,24.16
2023-05-14T11:12:56.989Z,24.04
2023-05-14T11:15:29.608Z,24.10
2023-05-14T11:17:59.845Z,23.97
2023-05-14T11:20:29.901Z,24.23
2023-05-14T11:23:00.505Z,24.40
2023-05-14T11:25:30.687Z,24.84
2023-05-14T11:28:03.393Z,24.50
2023-05-14T11:30:34.491Z,23.90
2023-05-14T11:33:04.640Z,24.28
2023-05-14T11:35:34.916Z,24.21
2023-05-14T11:38:05.690Z,24.90
2023-05-14T11:40:36.925Z,24.89
2023-05-14T11:43:09.750Z,25.09
2023-05-14T11:45:39.923Z,25.42
2023-05-14T11:48:19.088Z,25.63
2023-05-14T11:50:51.098Z,25.99
2023-05-14T11:53:22.042Z,25.57
2023-05-14T11:55:52.170Z,25.49
2023-05-14T11:58:24.969Z,25.06
2023-05-14T12:00:56.818Z,24.83
2023-05-14T12:03:30.370Z,24.35
2023-05-14T12:06:01.851Z,24.57
2023-05-14T12:08:33.694Z,24.76
2023-05-14T12:11:04.367Z,24.15
2023-05-14T12:13:37.003Z,24.29
2023-05-14T12:16:07.883Z,23.90
2023-05-14T12:18:38.141Z,23.71
2023-05-14T12:21:10.099Z,23.55
2023-05-14T12:23:41.859Z,23.45
2023-05-14T12:26:12.365Z,22.76
2023-05-14T12:28:45.670Z,21.91
2023-05-14T12:31:15.986Z,21.79
2023-05-14T12:33:46.083Z,21.17
2023-05-14T12:36:21.751Z,20.87
2023-05-14T12:38:52.746Z,20.68
2023-05-14T12:41:22.758Z,18.98
2023-05-14T12:43:55.462Z,19.66
2023-05-14T12:46:25.944Z,19.00
2023-05-14T12:48:56.134Z,19.45
2023-05-14T12:51:26.763Z,20.96
2023-05-14T12:53:56.772Z,21.54
2023-05-14T12:56:28.518Z,22.34
2023-05-14T12:59:01.479Z,22.12
2023-05-14T13:01:33.530Z,22.80
2023-05-14T13:04:03.692Z,23.16
2023-05-14T13:06:34.473Z,23.58
2023-05-14T13:09:04.504Z,23.95
2023-05-14T13:11:34.620Z,24.10
2023-05-14T13:14:07.275Z,24.10
2023-05-14T13:16:37.293Z,23.95
2023-05-14T13:19:07.415Z,23.81
2023-05-14T13:21:37.448Z,24.06
2023-05-14T13:24:10.164Z,22.91
2023-05-14T13:26:40.208Z,22.64
2023-05-14T13:29:12.894Z,22.42
2023-05-14T13:31:42.904Z,22.59
2023-05-14T13:34:13.272Z,22.68
2023-05-14T13:36:44.200Z,22.90
2023-05-14T13:39:14.749Z,22.93
2023-05-14T13:41:45.627Z,23.03
2023-05-14T13:44:18.289Z,22.54
2023-05-14T13:46:48.462Z,22.22
2023-05-14T13:49:18.615Z,22.18
2023-05-14T13:51:48.662Z,22.23
2023-05-14T13:54:18.766Z,21.66
2023-05-14T13:56:48.768Z,21.96
2023-05-14T13:59:21.541Z,21.44
2023-05-14T14:01:51.873Z,21.91
2023-05-14T14:04:22.407Z,21.88
2023-05-14T14:06:52.509Z,22.06
2023-05-14T14:09:22.553Z,21.30
2023-05-14T14:11:52.841Z,21.75
2023-05-14T14:14:25.562Z,22.25
2023-05-14T14:16:55.590Z,22.57
2023-05-14T14:19:25.744Z,22.49
2023-05-14T14:22:12.728Z,22.56
2023-05-14T14:24:43.010Z,22.33
2023-05-14T14:27:13.505Z,22.26
2023-05-14T14:29:46.326Z,21.95
2023-05-14T14:32:16.377Z,22.67
2023-05-14T14:34:46.561Z,22.30
2023-05-14T14:37:16.586Z,22.20
2023-05-14T14:39:46.655Z,22.10
2023-05-14T14:42:16.684Z,22.59
2023-05-14T14:44:49.303Z,22.08
2023-05-14T14:47:19.346Z,22.12
2023-05-14T14:49:49.401Z,22.52
2023-05-14T14:52:19.650Z,22.95
2023-05-14T14:54:49.677Z,22.93
2023-05-14T14:57:19.932Z,23.72
2023-05-14T14:59:52.515Z,23.88
2023-05-14T15:02:23.217Z,23.86
2023-05-14T15:04:53.317Z,23.79
2023-05-14T15:07:23.371Z,24.54
2023-05-14T15:09:53.369Z,24.60
2023-05-14T15:12:26.322Z,24.30
2023-05-14T15:14:58.945Z,24.49
2023-05-14T15:17:29.137Z,24.53
2023-05-14T15:22:29.086Z,24.83
2023-05-14T15:24:59.091Z,24.79
2023-05-14T15:27:29.392Z,24.55
2023-05-14T15:30:02.088Z,24.83
2023-05-14T15:32:32.785Z,25.19
2023-05-14T15:35:02.974Z,25.66
2023-05-14T15:37:39.880Z,25.07
2023-05-14T15:40:11.582Z,25.39
2023-05-14T15:42:43.184Z,25.20
2023-05-14T15:45:16.684Z,25.79
2023-05-14T15:47:47.223Z,25.02
2023-05-14T15:50:17.273Z,25.70
2023-05-14T15:52:47.363Z,25.46
2023-05-14T15:55:17.470Z,25.56
2023-05-14T15:57:47.544Z,25.44
2023-05-14T16:00:21.188Z,25.57
2023-05-14T16:02:51.615Z,25.63
2023-05-14T16:05:22.205Z,25.28
2023-05-14T16:07:52.367Z,25.16
2023-05-14T16:10:23.359Z,26.02
2023-05-14T16:12:53.616Z,25.60
2023-05-14T16:15:26.283Z,25.61
2023-05-14T16:17:56.342Z,26.12
2023-05-14T16:20:26.569Z,25.67
2023-05-14T16:22:56.856Z,25.77
2023-05-14T16:25:27.256Z,26.18
2023-05-14T16:27:57.611Z,26.31
2023-05-14T16:30:30.289Z,26.18
2023-05-14T16:33:00.506Z,26.32
2023-05-14T16:35:30.686Z,25.89
2023-05-14T16:38:00.774Z,26.30
2023-05-14T16:40:30.804Z,26.30
2023-05-14T16:43:01.078Z,26.26
2023-05-14T16:45:35.058Z,26.63
2023-05-14T16:48:05.189Z,26.47
2023-05-14T16:50:35.507Z,26.92
2023-05-14T16:53:05.514Z,27.37
2023-05-14T16:55:35.583Z,27.00
2023-05-14T16:58:05.624Z,27.27
2023-05-14T17:00:38.308Z,27.43
2023-05-14T17:03:08.467Z,28.22
2023-05-14T17:05:38.742Z,27.62
2023-05-14T17:08:09.361Z,28.11
2023-05-14T17:10:39.414Z,27.89
2023-05-14T17:13:09.533Z,27.89
2023-05-14T17:15:42.699Z,28.31
2023-05-14T17:18:13.126Z,27.98
2023-05-14T17:20:43.273Z,28.11
2023-05-14T17:23:13.687Z,28.47
2023-05-14T17:25:43.699Z,28.49
2023-05-14T17:28:13.810Z,28.35
2023-05-14T17:30:46.762Z,28.05
2023-05-14T17:33:16.875Z,28.90
2023-05-14T17:35:47.049Z,28.54
2023-05-14T17:38:17.338Z,28.49
2023-05-14T17:40:47.361Z,28.62
2023-05-14T17:43:17.740Z,29.40
2023-05-14T17:45:54.529Z,29.21
2023-05-14T17:48:25.052Z,29.31
2023-05-14T17:50:55.182Z,29.46
2023-05-14T17:53:25.254Z,29.69
2023-05-14T17:55:58.838Z,29.31
2023-05-14T17:58:28.948Z,29.43
2023-05-14T18:01:01.687Z,29.22
2023-05-14T18:03:32.194Z,29.66
2023-05-14T18:06:02.393Z,29.54
2023-05-14T18:08:32.595Z,29.65
2023-05-14T18:11:02.670Z,29.55
2023-05-14T18:13:32.800Z,29.75
2023-05-14T18:16:05.664Z,30.02
2023-05-14T18:18:35.849Z,30.01
2023-05-14T18:21:06.075Z,30.07
2023-05-14T18:23:36.117Z,30.33
2023-05-14T18:26:06.496Z,30.18
2023-05-14T18:28:36.647Z,30.20
2023-05-14T18:31:09.624Z,30.65
2023-05-14T18:33:39.720Z,30.74
2023-05-14T18:36:09.870Z,30.88
2023-05-14T18:38:40.941Z,30.88
2023-05-14T18:41:11.191Z,30.89
2023-05-14T18:43:41.360Z,31.37
2023-05-14T18:46:14.305Z,31.40
2023-05-14T18:48:44.486Z,31.84
2023-05-14T18:51:14.686Z,31.72
2023-05-14T18:53:44.909Z,32.36
2023-05-14T18:56:14.954Z,32.79
2023-05-14T18:58:44.995Z,33.11
2023-05-14T19:01:17.970Z,33.67
2023-05-14T19:03:48.403Z,33.53
2023-05-14T19:06:18.735Z,33.78
2023-05-14T19:08:48.872Z,34.18
2023-05-14T19:11:19.201Z,34.36
2023-05-14T19:13:49.777Z,34.43
2023-05-14T19:16:22.551Z,34.81
2023-05-14T19:18:52.838Z,35.17
2023-05-14T19:21:23.105Z,35.40
2023-05-14T19:23:53.346Z,35.70
2023-05-14T19:26:23.581Z,35.88
2023-05-14T19:28:58.475Z,35.66
2023-05-14T19:31:31.395Z,36.34
2023-05-14T19:34:01.507Z,36.43
2023-05-14T19:36:31.982Z,36.82
2023-05-14T19:39:02.083Z,36.69
2023-05-14T19:41:32.628Z,36.85
2023-05-14T19:44:02.648Z,37.44
2023-05-14T19:46:35.669Z,37.40
2023-05-14T19:49:05.872Z,37.77
2023-05-14T19:51:36.001Z,37.68
2023-05-14T19:54:06.929Z,38.41
2023-05-14T19:56:38.450Z,38.41
2023-05-14T19:59:08.512Z,38.79
2023-05-14T20:01:41.546Z,38.68
2023-05-14T20:04:11.675Z,38.76
2023-05-14T20:06:41.822Z,38.82
2023-05-14T20:09:11.940Z,39.31
2023-05-14T20:11:42.436Z,39.51
2023-05-14T20:14:12.522Z,39.55
2023-05-14T20:16:45.256Z,39.47
2023-05-14T20:19:16.525Z,39.82
2023-05-14T20:21:46.719Z,40.10
2023-05-14T20:24:16.819Z,40.01
2023-05-14T20:26:46.888Z,39.68
2023-05-14T20:29:17.260Z,39.94
2023-05-14T20:31:49.915Z,40.55
2023-05-14T20:34:20.449Z,40.25
2023-05-14T20:36:50.944Z,40.31
2023-05-14T20:39:21.242Z,40.63
2023-05-14T20:41:51.354Z,40.41
2023-05-14T20:44:21.438Z,40.81
2023-05-14T20:46:54.218Z,40.87
2023-05-14T20:49:24.421Z,41.12
2023-05-14T20:51:54.549Z,41.47
2023-05-14T20:54:24.638Z,41.24
2023-05-14T20:56:54.713Z,41.05
2023-05-14T20:59:24.742Z,41.67
2023-05-14T21:01:57.450Z,41.84
2023-05-14T21:04:27.668Z,41.67
2023-05-14T21:06:57.892Z,41.79
2023-05-14T21:09:28.105Z,41.96
2023-05-14T21:11:58.229Z,42.11
2023-05-14T21:14:28.354Z,42.15
2023-05-14T21:17:01.055Z,42.30
2023-05-14T21:19:31.189Z,42.35
2023-05-14T21:22:01.244Z,42.32
2023-05-14T21:24:34.332Z,42.54
2023-05-14T21:27:04.448Z,42.48
2023-05-14T21:29:34.555Z,42.82
2023-05-14T21:32:07.964Z,43.09
2023-05-14T21:34:38.085Z,43.14
2023-05-14T21:37:08.728Z,43.33
2023-05-14T21:39:38.847Z,43.16
2023-05-14T21:42:09.786Z,43.20
2023-05-14T21:44:39.825Z,43.38
2023-05-14T21:47:12.522Z,43.74
2023-05-14T21:49:43.208Z,43.58
2023-05-14T21:52:13.449Z,43.67
2023-05-14T21:54:43.577Z,43.84
2023-05-14T21:57:13.685Z,43.97
2023-05-14T21:59:43.755Z,44.26
2023-05-14T22:02:16.574Z,44.16
2023-05-14T22:04:46.995Z,44.34
2023-05-14T22:07:17.091Z,44.36
2023-05-14T22:09:47.136Z,44.52
2023-05-14T22:12:17.163Z,44.38
2023-05-14T22:14:47.150Z,44.56
2023-05-14T22:17:19.886Z,44.47
2023-05-14T22:19:49.971Z,44.75
2023-05-14T22:22:20.000Z,44.65
2023-05-14T22:24:50.006Z,44.38
2023-05-14T22:27:20.309Z,43.69
2023-05-14T22:29:50.391Z,44.22
2023-05-14T22:32:23.270Z,44.13
2023-05-14T22:34:53.498Z,44.33
2023-05-14T22:37:23.542Z,44.11
2023-05-14T22:39:53.616Z,44.44
2023-05-14T22:42:23.783Z,44.49
2023-05-14T22:44:53.803Z,44.64
2023-05-14T22:47:27.040Z,44.68
2023-05-14T22:49:57.124Z,44.93
2023-05-14T22:52:28.416Z,44.96
2023-05-14T22:54:58.414Z,44.75
2023-05-14T22:57:28.496Z,44.90
2023-05-14T22:59:58.446Z,45.12
2023-05-14T23:02:31.142Z,45.31
2023-05-14T23:05:01.153Z,45.51
2023-05-14T23:07:31.216Z,45.54
2023-05-14T23:10:01.228Z,45.52
2023-05-14T23:12:31.357Z,45.65
2023-05-14T23:15:01.851Z,45.83
2023-05-14T23:17:35.424Z,46.05
2023-05-14T23:20:06.914Z,45.81
2023-05-14T23:22:36.965Z,45.91
2023-05-14T23:25:08.136Z,46.04
2023-05-14T23:27:38.240Z,46.03
2023-05-14T23:30:09.377Z,46.01
2023-05-14T23:32:42.078Z,46.34
2023-05-14T23:35:12.698Z,46.40
2023-05-14T23:37:47.566Z,46.53
2023-05-14T23:40:18.194Z,46.39
2023-05-14T23:42:48.324Z,46.27
2023-05-14T23:45:18.502Z,46.27
2023-05-14T23:47:51.744Z,46.55
2023-05-14T23:50:22.063Z,46.55
2023-05-14T23:52:54.695Z,46.65
2023-05-14T23:55:25.170Z,46.84
2023-05-14T23:57:55.500Z,47.01
